Preview of NWS' New Version of Forecast
This preview is not operational and should not be used for support decisions.

Terminal Aerodrome Forecast (TAF)

Issued by National Weather Service (NWS)

                            
000
FTAK31 PAFC 230533
TAFADL
TAF
PADL 230533Z 2306/2406 VRB05KT P6SM SCT070
     FM231500 VRB03KT 3SM BR FEW001 SCT050
     FM231800 17006KT P6SM SCT050=